Airfield :







YOU CAN JOIN US ON...

 
LOGIN :

Register | Disclaimer

   EN    FR    IT 

 









Legend :    VFR   Marginal VFR   IFR   Intensive IFR   Very Intensive IFR
Visi :
Ceiling :
>= 8 km
>= 3000ft
5 to 8 km
1000 to 3000 ft
1500m to 5 km
500 to 1000 ft
800 to 1500m
200 to 500 ft
< 800m
< 200 ft
Symbols :   Thunderstorms  Fog  Heavy snow  Heavy precipitations  Wind > 20 kt






- Airport Elevation : 108 ft
- IATA code : YAY


CYAY - St Anthony

CURRENT METAR :
  • 220927Z AUTO 09014KT 3SM -RA 02/01 RMK CLD MISG PRES MISG DENSITY ALT MISG

EXPIRED METARs :
  • 220923Z AUTO /////KT BKN006 OVC010 02/01 RMK WX MISG VIS MISG PCPN MISG PRES MISG DENSITY ALT MISG
  • 220908Z AUTO 10014G19KT 4SM -RA -UP BR BKN006 OVC010 01/01 A2994 RMK PRESFR SLP141
  • 220857Z AUTO 10012G21KT 4SM -UP BR OVC006 01/01 A2995 RMK SLP147
  • 220827Z AUTO 10014G19KT 9SM -RA 01/01 A2997 RMK ICG PAST HR CLD MISG SLP152
  • 220814Z AUTO 10016KT 9SM -SN 01/00 A2996 RMK ICG PAST HR CLD MISG SLP150
  • 220749Z AUTO 11013KT 3SM -SN FEW006 OVC012 00/00 A3001 RMK ICG PRESFR SLP167
  • 220742Z AUTO 10012G17KT 2 1/2SM -SN OVC010 00/M00 A3003 RMK ICG INTMT PRESFR SLP171
  • 220732Z AUTO 10012KT 2SM -SN OVC008 00/00 A3004 RMK VIS VRB 1 1/4-3 ICG SLP177
  • 220713Z AUTO 10014KT 1 3/4SM -SN SCT004 OVC008 00/00 A3005 RMK VIS VRB 1 1/4-2 1/4 ICG PRESFR SLP179
  • 220700Z AUTO 10011KT 2 1/4SM -SN BKN004 OVC010 00/00 A3006 RMK VIS VRB 1 3/4-3 ICG SLP184
  • 220653Z AUTO 11012KT 2 1/2SM -SN BKN004 OVC010 00/00 RMK ICG PRES MISG DENSITY ALT MISG

TAF AMD TAF CYAY
Valid from the 22 at 08:00 until the 22 at 20:00 UTC


220808Z 2208/2220 11015KT 6SM -SN FEW006 OVC015
TEMPO 2208/2211 11/2SM -SN OVC006
PROB30 2208/2211 6SM -PL BR OVC003
FM221100 11015G25KT 1SM -RA -DZ BR OVC002
TEMPO 2211/2214 6SM BR OVC006
BECMG 2212/2214 27015G25KT
FM221400 27015G25KT 4SM -RA -DZ BR BKN006 OVC015
FM221600 29015G25KT P6SM -SHRA BKN008 OVC040 RMK FCST BASED ON AUTO OBS. NXT FCST BY 221400Z
CZQX FIR / North America



MET'MAP, your aeronautical weather chart ! - Copyright ORBIFLY December 2007 - Disclaimer

ORBIFLY MET'MAP TEAM :

Programming & Development : Alexandra Zaïnal
Concept & original design : Baudouin d'Aumeries
Assistance for programming : Marc-Olivier Méhu
Technical & hardware support : Manuel Goepfert

Contact : metmap@orbifly.com




SOURCES & CREDITS :

   NOAA